createdAt,value
2023-08-21T05:01:03.556Z,100.00
2023-08-21T05:03:50.161Z,100.00
2023-08-21T05:06:36.396Z,100.00
2023-08-21T05:09:22.989Z,100.00
2023-08-21T05:12:09.713Z,100.00
2023-08-21T05:14:56.024Z,100.00
2023-08-21T07:29:19.707Z,100.00
2023-08-21T07:32:05.994Z,100.00
2023-08-21T07:34:54.227Z,100.00
2023-08-21T07:37:42.016Z,100.00
2023-08-21T07:40:29.143Z,100.00
2023-08-21T07:43:17.357Z,100.00
2023-08-21T07:46:06.139Z,100.00
2023-08-21T07:48:54.817Z,100.00
2023-08-21T07:51:41.074Z,100.00
2023-08-21T07:54:27.313Z,100.00
2023-08-21T07:57:14.200Z,100.00
2023-08-21T08:00:01.033Z,100.00
2023-08-21T08:02:48.939Z,100.00
2023-08-21T08:05:37.032Z,100.00
2023-08-21T08:08:39.156Z,100.00
2023-08-21T08:11:27.878Z,100.00
2023-08-21T08:14:15.762Z,100.00
2023-08-21T08:17:02.137Z,100.00
2023-08-21T08:19:49.544Z,100.00
2023-08-21T08:22:36.197Z,100.00
2023-08-21T08:33:12.310Z,100.00
2023-08-21T08:40:19.457Z,100.00
2023-08-21T08:43:06.466Z,100.00
2023-08-21T08:45:52.823Z,100.00
2023-08-21T08:48:39.764Z,100.00
2023-08-21T08:51:26.728Z,100.00
2023-08-21T08:54:13.985Z,100.00
2023-08-21T08:57:01.997Z,100.00
2023-08-21T08:59:48.624Z,100.00
2023-08-21T09:02:35.208Z,100.00
2023-08-21T09:05:21.829Z,100.00
2023-08-21T09:08:14.620Z,100.00
2023-08-21T09:11:03.295Z,100.00
2023-08-21T09:13:52.750Z,100.00
2023-08-21T09:17:01.153Z,100.00
2023-08-21T09:24:11.389Z,100.00
2023-08-21T09:27:00.939Z,100.00
2023-08-21T09:29:48.989Z,100.00
2023-08-21T09:32:53.866Z,100.00
2023-08-21T09:35:43.195Z,100.00
2023-08-21T09:38:30.859Z,100.00
2023-08-21T09:41:20.848Z,100.00
2023-08-21T09:44:10.104Z,100.00
2023-08-21T09:46:57.788Z,100.00
2023-08-21T09:49:48.662Z,100.00
2023-08-21T09:52:37.300Z,100.00
2023-08-21T09:55:24.122Z,100.00
2023-08-21T09:58:11.138Z,100.00
2023-08-21T10:00:59.545Z,100.00
2023-08-21T10:03:49.082Z,100.00
2023-08-21T10:06:37.810Z,100.00
2023-08-21T10:09:25.309Z,100.00
2023-08-21T10:12:11.981Z,100.00
2023-08-21T10:14:59.741Z,100.00
2023-08-21T10:18:05.024Z,100.00
2023-08-21T10:20:52.711Z,100.00
2023-08-21T10:23:45.735Z,100.00
2023-08-21T10:26:34.295Z,100.00
2023-08-21T10:29:22.305Z,100.00
2023-08-21T10:32:08.842Z,100.00
2023-08-21T10:34:55.636Z,100.00
2023-08-21T10:37:57.009Z,100.00
2023-08-21T10:41:05.897Z,100.00
2023-08-21T10:43:52.266Z,100.00
2023-08-21T10:46:54.710Z,100.00
2023-08-21T10:49:41.092Z,100.00
2023-08-21T10:52:28.139Z,100.00
2023-08-21T10:55:15.164Z,100.00
2023-08-21T10:58:03.605Z,100.00
2023-08-21T11:00:58.200Z,88.68
2023-08-21T11:03:47.372Z,74.48
2023-08-21T11:06:37.214Z,75.75
2023-08-21T11:09:23.389Z,85.57
2023-08-21T11:12:36.575Z,74.71
2023-08-21T11:15:24.651Z,72.29
2023-08-21T11:18:10.881Z,79.13
2023-08-21T11:21:05.161Z,88.19
2023-08-21T11:23:51.288Z,84.43
2023-08-21T11:26:38.194Z,72.54
2023-08-21T11:29:24.502Z,72.65
2023-08-21T11:32:14.827Z,75.38
2023-08-21T11:35:03.057Z,75.22
2023-08-21T11:37:51.701Z,78.75
2023-08-21T11:40:38.408Z,83.19
2023-08-21T11:43:50.796Z,82.83
2023-08-21T11:46:41.275Z,75.08
2023-08-21T11:49:33.489Z,71.86
2023-08-21T11:52:26.451Z,68.31
2023-08-21T11:55:39.608Z,83.52
2023-08-21T11:58:30.005Z,83.40
2023-08-21T12:01:18.476Z,81.29
2023-08-21T12:04:16.200Z,76.23
2023-08-21T12:07:04.352Z,71.16
2023-08-21T12:09:51.155Z,73.41
2023-08-21T12:12:38.154Z,78.69
2023-08-21T12:15:24.615Z,77.23
2023-08-21T12:18:11.124Z,73.35
2023-08-21T12:20:57.560Z,71.49
2023-08-21T12:23:45.037Z,68.57
2023-08-21T12:26:37.275Z,68.11
2023-08-21T12:29:31.856Z,82.07
2023-08-21T12:32:18.344Z,85.73
2023-08-21T12:35:05.822Z,73.14
2023-08-21T12:37:52.457Z,72.03
2023-08-21T12:40:40.062Z,67.75
2023-08-21T12:43:26.581Z,62.83
2023-08-21T12:46:12.584Z,62.55
2023-08-21T12:49:00.423Z,63.09
2023-08-21T12:51:46.578Z,62.91
2023-08-21T12:54:32.794Z,65.04
2023-08-21T12:57:20.347Z,68.66
2023-08-21T13:00:09.770Z,64.08
2023-08-21T13:02:55.962Z,66.60
2023-08-21T13:08:45.370Z,59.57
2023-08-21T13:11:31.829Z,62.56
2023-08-21T13:14:19.377Z,74.74
2023-08-21T13:17:05.697Z,73.73
2023-08-21T13:19:52.117Z,74.28
2023-08-21T13:22:47.850Z,70.38
2023-08-21T13:25:33.877Z,66.39
2023-08-21T13:28:20.004Z,60.70
2023-08-21T13:31:08.303Z,62.92
2023-08-21T13:33:54.854Z,59.99
2023-08-21T13:36:40.840Z,62.35
2023-08-21T13:39:27.646Z,64.01
2023-08-21T13:42:14.305Z,66.41
2023-08-21T13:45:00.780Z,64.12
2023-08-21T13:47:49.724Z,61.34
2023-08-21T13:50:36.990Z,59.23
2023-08-21T13:53:23.944Z,66.07
2023-08-21T13:56:10.450Z,62.92
2023-08-21T13:58:57.148Z,64.08
2023-08-21T14:01:43.714Z,65.10
2023-08-21T14:04:32.111Z,60.25
2023-08-21T14:07:18.900Z,62.52
2023-08-21T14:10:06.058Z,63.86
2023-08-21T14:12:52.242Z,60.18
2023-08-21T14:15:38.653Z,59.78
2023-08-21T14:18:25.159Z,59.87
2023-08-21T14:21:14.183Z,66.05
2023-08-21T14:24:00.805Z,66.98
2023-08-21T14:26:46.937Z,63.66
2023-08-21T14:29:33.071Z,67.20
2023-08-21T14:32:19.272Z,60.24
2023-08-21T14:35:08.351Z,62.59
2023-08-21T14:37:57.106Z,57.36
2023-08-21T14:40:43.700Z,58.23
2023-08-21T14:43:33.230Z,57.75
2023-08-21T14:46:34.649Z,58.53
2023-08-21T14:49:26.546Z,55.72
2023-08-21T14:52:13.048Z,56.19
2023-08-21T14:55:00.639Z,51.53
2023-08-21T14:57:47.243Z,51.00
2023-08-21T15:10:13.379Z,55.49
2023-08-21T15:13:01.038Z,54.04
2023-08-21T15:15:50.030Z,57.94
2023-08-21T15:18:38.059Z,53.44
2023-08-21T15:21:25.434Z,55.21
2023-08-21T15:24:11.954Z,52.10
2023-08-21T15:26:59.509Z,51.11
2023-08-21T15:29:45.665Z,51.81
2023-08-21T15:32:32.534Z,52.08
2023-08-21T15:35:19.508Z,50.63
2023-08-21T15:38:05.897Z,49.92
2023-08-21T15:40:52.348Z,51.43
2023-08-21T15:43:40.079Z,50.27
2023-08-21T15:46:27.884Z,49.45
2023-08-21T15:49:14.471Z,48.99
2023-08-21T15:52:04.747Z,48.27
2023-08-21T15:54:56.984Z,48.33
2023-08-21T15:57:45.560Z,46.84
2023-08-21T16:00:37.489Z,49.95
2023-08-21T16:03:24.088Z,51.37
2023-08-21T16:06:11.443Z,52.21
2023-08-21T16:08:58.076Z,52.23
2023-08-21T16:11:44.276Z,48.99
2023-08-21T16:14:30.813Z,52.54
2023-08-21T16:17:18.838Z,55.35
2023-08-21T16:20:06.258Z,53.89
2023-08-21T16:22:52.285Z,54.65
2023-08-21T16:25:38.431Z,57.80
2023-08-21T16:28:24.641Z,54.30
2023-08-21T16:31:11.179Z,51.13
2023-08-21T16:33:59.352Z,50.09
2023-08-21T16:36:48.324Z,52.40
2023-08-21T16:39:34.519Z,50.61
2023-08-21T16:42:20.716Z,51.44
2023-08-21T16:45:08.276Z,51.93
2023-08-21T16:47:55.128Z,52.89
2023-08-21T16:50:43.060Z,51.37
2023-08-21T16:53:29.263Z,50.87
2023-08-21T16:56:16.032Z,52.57
2023-08-21T16:59:02.070Z,61.83
2023-08-21T17:01:48.430Z,74.48
2023-08-21T17:04:34.665Z,81.58
2023-08-21T17:07:22.381Z,86.34
2023-08-21T17:10:11.333Z,96.23
2023-08-21T17:12:57.641Z,100.00
2023-08-21T17:15:43.780Z,100.00
2023-08-21T17:18:30.048Z,100.00
2023-08-21T17:21:16.407Z,100.00
2023-08-21T17:24:04.503Z,100.00
2023-08-21T17:26:51.035Z,100.00
2023-08-21T17:29:37.929Z,100.00
2023-08-21T17:32:24.415Z,100.00
2023-08-21T17:35:10.761Z,100.00
2023-08-21T17:37:57.181Z,100.00
2023-08-21T17:40:45.739Z,100.00
2023-08-21T17:43:31.919Z,100.00
2023-08-21T17:46:18.618Z,100.00
2023-08-21T17:49:04.796Z,100.00
2023-08-21T17:51:50.914Z,100.00
2023-08-21T17:54:37.575Z,100.00
2023-08-21T17:57:25.226Z,100.00
2023-08-21T18:00:13.005Z,100.00
2023-08-21T18:02:59.258Z,100.00
2023-08-21T18:05:45.450Z,100.00
2023-08-21T18:08:32.500Z,100.00
2023-08-21T18:11:19.012Z,100.00
2023-08-21T18:14:07.273Z,100.00
2023-08-21T18:16:57.789Z,100.00
2023-08-21T18:19:47.422Z,100.00
2023-08-21T18:22:34.539Z,100.00
2023-08-21T18:25:20.819Z,100.00
2023-08-21T18:28:07.202Z,100.00
2023-08-21T18:30:56.298Z,100.00
2023-08-21T18:33:42.767Z,100.00
2023-08-21T18:36:34.714Z,100.00
2023-08-21T18:39:21.655Z,100.00
2023-08-21T18:42:08.003Z,100.00
2023-08-21T18:44:54.385Z,100.00
2023-08-21T18:47:42.385Z,100.00
2023-08-21T18:50:37.335Z,100.00
2023-08-21T18:53:23.482Z,100.00
2023-08-21T18:56:10.824Z,100.00
2023-08-21T18:58:57.137Z,100.00
2023-08-21T19:01:43.844Z,100.00
2023-08-21T19:04:32.519Z,100.00
2023-08-21T19:07:19.125Z,100.00
2023-08-21T19:10:07.405Z,100.00
2023-08-21T19:12:54.277Z,100.00
2023-08-21T19:15:42.870Z,100.00
2023-08-21T19:18:31.227Z,100.00
2023-08-21T19:21:19.091Z,100.00
2023-08-21T19:24:05.377Z,100.00
2023-08-21T19:26:51.838Z,100.00
2023-08-21T19:29:38.406Z,100.00
2023-08-21T19:32:25.067Z,100.00
2023-08-21T19:35:11.586Z,100.00
2023-08-21T19:37:59.447Z,100.00
2023-08-21T19:40:48.261Z,100.00
2023-08-21T19:43:34.340Z,100.00
2023-08-21T19:46:20.665Z,100.00
2023-08-21T19:49:06.737Z,100.00
2023-08-21T19:51:52.836Z,100.00
2023-08-21T19:54:40.980Z,100.00
2023-08-21T19:57:27.341Z,100.00
2023-08-21T22:00:34.361Z,100.00
2023-08-21T22:03:21.017Z,100.00
2023-08-21T22:06:09.841Z,100.00
2023-08-21T22:08:56.923Z,100.00
2023-08-21T22:11:43.154Z,100.00
2023-08-21T22:14:29.475Z,100.00
